createdAt,value
2022-08-03T00:00:15.678Z,101516.84
2022-08-03T00:02:47.681Z,101515.16
2022-08-03T00:05:19.866Z,101516.97
2022-08-03T00:07:51.805Z,101510.84
2022-08-03T00:10:25.004Z,101508.47
2022-08-03T00:12:57.099Z,101514.84
2022-08-03T00:15:29.141Z,101506.09
2022-08-03T00:18:01.235Z,101508.00
2022-08-03T00:20:33.191Z,101508.13
2022-08-03T00:23:06.056Z,101502.22
2022-08-03T00:25:38.987Z,101496.38
2022-08-03T00:28:10.961Z,101500.81
2022-08-03T00:30:42.927Z,101492.03
2022-08-03T00:33:17.321Z,101502.75
2022-08-03T00:35:50.114Z,101501.03
2022-08-03T00:38:22.493Z,101496.69
2022-08-03T00:40:55.969Z,101499.56
2022-08-03T00:43:27.987Z,101493.44
2022-08-03T00:46:00.036Z,101497.09
2022-08-03T00:48:33.682Z,101500.63
2022-08-03T00:51:06.926Z,101499.09
2022-08-03T00:53:39.008Z,101496.50
2022-08-03T00:56:15.292Z,101496.50
2022-08-03T00:58:47.775Z,101493.91
2022-08-03T01:01:19.769Z,101499.34
2022-08-03T01:03:51.821Z,101487.09
2022-08-03T01:06:30.542Z,101489.84
2022-08-03T01:09:17.214Z,101494.41
2022-08-03T01:12:01.924Z,101487.50
2022-08-03T01:14:54.553Z,101489.34
2022-08-03T01:17:56.823Z,101492.94
2022-08-03T01:20:35.528Z,101493.84
2022-08-03T01:23:29.655Z,101484.97
2022-08-03T01:26:50.098Z,101487.72
2022-08-03T01:29:43.385Z,101492.38
2022-08-03T01:33:01.091Z,101489.75
2022-08-03T01:35:39.923Z,101485.41
2022-08-03T01:38:25.183Z,101496.00
2022-08-03T01:40:57.966Z,101496.19
2022-08-03T01:44:26.792Z,101490.06
2022-08-03T01:46:25.834Z,101502.38
2022-08-03T01:48:59.607Z,101492.66
2022-08-03T01:51:57.924Z,101487.53
2022-08-03T01:54:26.118Z,101488.47
2022-08-03T01:56:59.916Z,101486.72
2022-08-03T01:59:35.368Z,101484.19
2022-08-03T02:02:19.526Z,101488.72
2022-08-03T02:05:02.173Z,101482.66
2022-08-03T02:07:35.554Z,101477.44
2022-08-03T02:10:09.822Z,101481.16
2022-08-03T02:12:46.074Z,101479.69
2022-08-03T02:15:19.600Z,101492.13
2022-08-03T02:17:53.288Z,101478.81
2022-08-03T02:20:26.270Z,101487.59
2022-08-03T02:22:58.319Z,101483.28
2022-08-03T02:25:32.714Z,101478.88
2022-08-03T02:28:14.857Z,101483.41
2022-08-03T02:30:55.417Z,101476.47
2022-08-03T02:33:33.421Z,101484.44
2022-08-03T02:36:06.752Z,101474.84
2022-08-03T02:38:42.966Z,101479.25
2022-08-03T02:41:18.638Z,101466.00
2022-08-03T02:44:06.010Z,101473.31
2022-08-03T02:46:44.596Z,101467.06
2022-08-03T02:49:40.690Z,101462.72
2022-08-03T02:52:17.143Z,101464.53
2022-08-03T02:54:53.911Z,101461.03
2022-08-03T02:57:28.902Z,101460.34
2022-08-03T03:00:01.669Z,101467.50
2022-08-03T03:02:34.822Z,101465.91
2022-08-03T03:05:53.146Z,101466.13
2022-08-03T03:08:00.947Z,101460.09
2022-08-03T03:10:33.453Z,101470.59
2022-08-03T03:13:06.192Z,101466.41
2022-08-03T03:15:39.925Z,101466.34
2022-08-03T03:18:13.045Z,101463.69
2022-08-03T03:20:46.571Z,101463.69
2022-08-03T03:23:23.424Z,101467.19
2022-08-03T03:25:58.566Z,101469.06
2022-08-03T03:28:32.012Z,101474.50
2022-08-03T03:31:08.353Z,101478.31
2022-08-03T03:33:40.538Z,101470.41
2022-08-03T03:36:12.861Z,101476.63
2022-08-03T03:38:45.075Z,101474.84
2022-08-03T03:41:17.602Z,101473.06
2022-08-03T03:43:50.937Z,101473.88
2022-08-03T03:46:23.593Z,101466.75
2022-08-03T03:48:55.820Z,101465.19
2022-08-03T03:51:27.799Z,101470.47
2022-08-03T03:54:02.532Z,101472.19
2022-08-03T03:56:34.542Z,101473.16
2022-08-03T03:59:06.512Z,101461.75
2022-08-03T04:01:40.047Z,101468.09
2022-08-03T04:04:30.322Z,101468.91
2022-08-03T04:07:21.105Z,101473.56
2022-08-03T04:10:14.418Z,101468.22
2022-08-03T04:12:50.379Z,101464.50
2022-08-03T04:15:23.801Z,101450.53
2022-08-03T04:17:59.287Z,101451.47
2022-08-03T04:20:34.509Z,101456.06
2022-08-03T04:23:14.199Z,101454.34
2022-08-03T04:25:51.871Z,101454.66
2022-08-03T04:28:30.981Z,101454.88
2022-08-03T04:31:05.561Z,101456.63
2022-08-03T04:33:39.878Z,101463.72
2022-08-03T04:36:18.324Z,101468.84
2022-08-03T04:39:04.692Z,101465.94
2022-08-03T04:42:04.325Z,101467.69
2022-08-03T04:44:31.954Z,101466.75
2022-08-03T04:47:04.397Z,101469.34
2022-08-03T04:49:40.738Z,101474.56
2022-08-03T04:52:13.235Z,101472.66
2022-08-03T04:54:50.729Z,101473.34
2022-08-03T04:57:23.642Z,101471.63
2022-08-03T05:00:02.139Z,101461.75
2022-08-03T05:02:35.320Z,101469.47
2022-08-03T05:05:07.786Z,101474.78
2022-08-03T05:07:40.840Z,101473.69
2022-08-03T05:10:14.992Z,101473.22
2022-08-03T05:12:48.862Z,101477.22
2022-08-03T05:15:20.971Z,101479.81
2022-08-03T05:17:52.930Z,101479.56
2022-08-03T05:20:24.888Z,101483.47
2022-08-03T05:22:57.529Z,101485.78
2022-08-03T05:25:30.095Z,101482.03
2022-08-03T05:28:02.078Z,101484.25
2022-08-03T05:30:34.711Z,101479.69
2022-08-03T05:33:08.967Z,101482.16
2022-08-03T05:35:57.882Z,101481.66
2022-08-03T05:38:34.592Z,101485.97
2022-08-03T05:41:22.540Z,101482.88
2022-08-03T05:43:56.181Z,101490.50
2022-08-03T05:46:28.131Z,101490.91
2022-08-03T05:49:00.190Z,101486.91
2022-08-03T05:51:32.212Z,101492.16
2022-08-03T05:54:04.508Z,101486.50
2022-08-03T05:56:36.493Z,101480.72
2022-08-03T05:59:35.821Z,101487.66
2022-08-03T06:02:00.682Z,101481.78
2022-08-03T06:04:32.769Z,101483.31
2022-08-03T06:07:04.757Z,101490.84
2022-08-03T06:10:33.827Z,101487.25
2022-08-03T06:12:29.456Z,101487.97
2022-08-03T06:15:02.066Z,101490.16
2022-08-03T06:17:37.414Z,101486.94
2022-08-03T06:20:10.962Z,101482.19
2022-08-03T06:22:50.542Z,101485.50
2022-08-03T06:25:23.104Z,101484.00
2022-08-03T06:27:55.080Z,101484.66
2022-08-03T06:30:27.324Z,101487.97
2022-08-03T06:32:59.277Z,101493.22
2022-08-03T06:35:31.381Z,101488.75
2022-08-03T06:38:03.357Z,101491.44
2022-08-03T06:40:40.230Z,101489.34
2022-08-03T06:43:13.973Z,101503.00
2022-08-03T06:45:48.074Z,101502.69
2022-08-03T06:48:20.035Z,101492.97
2022-08-03T06:50:52.091Z,101511.16
2022-08-03T06:53:24.015Z,101507.41
2022-08-03T06:55:56.247Z,101507.81
2022-08-03T06:58:28.254Z,101503.03
2022-08-03T07:01:00.867Z,101501.88
2022-08-03T07:03:33.074Z,101506.69
2022-08-03T07:06:05.135Z,101503.63
2022-08-03T07:08:37.471Z,101507.59
2022-08-03T07:11:09.434Z,101507.47
2022-08-03T07:13:41.475Z,101509.06
2022-08-03T07:16:13.432Z,101508.91
2022-08-03T07:18:45.393Z,101512.59
2022-08-03T07:21:17.371Z,101504.16
2022-08-03T07:23:49.370Z,101508.72
2022-08-03T07:26:21.464Z,101505.28
2022-08-03T07:28:53.446Z,101514.78
2022-08-03T07:31:25.415Z,101507.13
2022-08-03T07:33:57.478Z,101510.91
2022-08-03T07:36:29.519Z,101519.13
2022-08-03T07:39:01.490Z,101517.97
2022-08-03T07:41:50.628Z,101517.38
2022-08-03T07:44:22.621Z,101525.66
2022-08-03T07:46:54.668Z,101520.59
2022-08-03T07:49:28.891Z,101518.94
2022-08-03T07:52:19.628Z,101525.16
2022-08-03T07:54:51.762Z,101517.22
2022-08-03T07:57:23.996Z,101520.66
2022-08-03T08:00:01.717Z,101519.34
2022-08-03T08:02:34.706Z,101525.25
2022-08-03T08:05:07.296Z,101518.41
2022-08-03T08:07:39.804Z,101517.28
2022-08-03T08:10:11.863Z,101523.63
2022-08-03T08:12:44.997Z,101531.50
2022-08-03T08:15:17.018Z,101530.03
2022-08-03T08:17:53.622Z,101528.78
2022-08-03T08:20:38.089Z,101528.25
2022-08-03T08:23:38.652Z,101526.22
2022-08-03T08:26:02.315Z,101526.94
2022-08-03T08:28:34.333Z,101515.44
2022-08-03T08:31:06.519Z,101524.25
2022-08-03T08:36:30.411Z,101513.25
2022-08-03T08:39:02.594Z,101520.69
2022-08-03T08:41:34.986Z,101514.03
2022-08-03T08:44:08.343Z,101511.66
2022-08-03T08:46:40.502Z,101516.00
2022-08-03T08:49:17.497Z,101508.22
2022-08-03T08:52:00.499Z,101507.34
2022-08-03T08:54:33.631Z,101510.94
2022-08-03T08:57:16.503Z,101507.13
2022-08-03T08:59:58.992Z,101507.25
2022-08-03T09:02:31.673Z,101515.84
2022-08-03T09:05:07.484Z,101511.16
2022-08-03T09:07:41.932Z,101513.25
2022-08-03T09:10:19.909Z,101513.03
2022-08-03T09:12:53.111Z,101510.00
2022-08-03T09:15:28.693Z,101511.41
2022-08-03T09:18:02.801Z,101506.88
2022-08-03T09:20:36.952Z,101511.03
2022-08-03T09:23:58.913Z,101504.44
2022-08-03T09:26:03.095Z,101504.13
2022-08-03T09:29:00.545Z,101503.38
2022-08-03T09:31:43.138Z,101509.47
2022-08-03T09:34:18.411Z,101514.59
2022-08-03T09:36:51.647Z,101510.78
2022-08-03T09:39:40.923Z,101517.13
2022-08-03T09:42:19.060Z,101525.41
2022-08-03T09:44:58.017Z,101503.75
2022-08-03T09:47:36.426Z,101501.13
2022-08-03T09:50:10.735Z,101498.78
2022-08-03T09:52:50.180Z,101504.69
2022-08-03T09:56:35.605Z,101503.81
2022-08-03T09:58:17.121Z,101506.88
2022-08-03T10:01:24.494Z,101497.06
2022-08-03T10:04:04.285Z,101489.63
2022-08-03T10:06:36.766Z,101488.34
2022-08-03T10:09:16.908Z,101494.59
2022-08-03T10:11:49.517Z,101498.28
2022-08-03T10:14:22.715Z,101495.66
2022-08-03T10:16:54.685Z,101496.22
2022-08-03T10:19:26.828Z,101490.94
2022-08-03T10:22:09.922Z,101495.53
2022-08-03T10:25:03.922Z,101487.00
2022-08-03T10:27:42.664Z,101491.66
2022-08-03T10:30:15.088Z,101484.28
2022-08-03T10:32:57.672Z,101483.22
2022-08-03T10:35:30.286Z,101496.06
2022-08-03T10:38:10.653Z,101479.00
2022-08-03T10:40:49.593Z,101488.84
2022-08-03T10:43:53.609Z,101485.16
2022-08-03T10:46:27.548Z,101489.41
2022-08-03T10:49:00.676Z,101488.13
2022-08-03T10:51:33.701Z,101478.41
2022-08-03T10:54:05.775Z,101477.91
2022-08-03T10:57:13.605Z,101473.31
2022-08-03T10:59:46.477Z,101476.03
2022-08-03T11:02:18.621Z,101470.53
2022-08-03T11:05:29.933Z,101474.91
2022-08-03T11:08:31.509Z,101470.22
2022-08-03T11:11:18.711Z,101463.25
2022-08-03T11:14:08.238Z,101468.31
2022-08-03T11:17:14.369Z,101459.97
2022-08-03T11:19:57.564Z,101462.00
2022-08-03T11:22:50.990Z,101471.22
2022-08-03T11:25:34.832Z,101468.50
2022-08-03T11:28:42.837Z,101472.72
2022-08-03T11:31:48.527Z,101460.00
2022-08-03T11:34:20.038Z,101452.34
2022-08-03T11:37:29.941Z,101469.13
2022-08-03T11:40:04.580Z,101449.66
2022-08-03T11:42:36.639Z,101462.53
2022-08-03T11:45:10.092Z,101439.38
2022-08-03T11:47:50.648Z,101441.84
2022-08-03T11:50:24.495Z,101446.13
2022-08-03T11:52:56.514Z,101443.25
2022-08-03T11:55:32.094Z,101447.50
2022-08-03T11:59:01.219Z,101444.25
2022-08-03T12:01:07.797Z,101443.41
2022-08-03T12:03:39.809Z,101450.22
2022-08-03T12:06:14.787Z,101444.69
2022-08-03T12:08:47.411Z,101449.13
2022-08-03T12:11:20.034Z,101449.59
2022-08-03T12:14:45.803Z,101440.50
2022-08-03T12:16:48.872Z,101445.78
2022-08-03T12:19:20.901Z,101445.13
2022-08-03T12:21:55.820Z,101433.03
2022-08-03T12:24:42.738Z,101441.56
2022-08-03T12:27:25.297Z,101441.78
2022-08-03T12:29:59.476Z,101436.69
2022-08-03T12:32:31.957Z,101432.66
2022-08-03T12:35:04.697Z,101428.88
2022-08-03T12:37:37.339Z,101431.59
2022-08-03T12:40:13.215Z,101434.34
2022-08-03T12:42:47.383Z,101440.06
2022-08-03T12:45:27.135Z,101439.72
2022-08-03T12:48:01.910Z,101429.28
2022-08-03T12:50:37.257Z,101435.41
2022-08-03T12:53:10.359Z,101427.56
2022-08-03T12:55:57.922Z,101428.81
2022-08-03T12:58:36.216Z,101419.44
2022-08-03T13:01:09.856Z,101428.25
2022-08-03T13:03:49.999Z,101423.78
2022-08-03T13:06:25.445Z,101417.22
2022-08-03T13:09:08.157Z,101425.00
2022-08-03T13:11:58.079Z,101420.38
2022-08-03T13:14:32.140Z,101420.88
2022-08-03T13:17:06.433Z,101419.00
2022-08-03T13:19:39.545Z,101418.50
2022-08-03T13:22:13.989Z,101423.31
2022-08-03T13:24:49.741Z,101416.78
2022-08-03T13:28:03.421Z,101417.06
2022-08-03T13:30:16.192Z,101420.22
2022-08-03T13:33:00.712Z,101414.16
2022-08-03T13:35:32.709Z,101412.66
2022-08-03T13:38:04.714Z,101412.13
2022-08-03T13:40:41.750Z,101410.91
2022-08-03T13:43:14.005Z,101403.16
2022-08-03T13:45:51.247Z,101404.91
2022-08-03T13:48:34.748Z,101400.25
2022-08-03T13:51:21.767Z,101398.56
2022-08-03T13:53:54.784Z,101394.59
2022-08-03T13:56:27.913Z,101396.34
2022-08-03T13:59:00.025Z,101399.59
2022-08-03T14:01:54.244Z,101392.50
2022-08-03T14:04:24.082Z,101399.75
2022-08-03T14:06:56.183Z,101395.50
2022-08-03T14:09:28.141Z,101391.06
2022-08-03T14:12:07.633Z,101380.16
2022-08-03T14:14:41.107Z,101382.22
2022-08-03T14:17:13.110Z,101380.97
2022-08-03T14:19:53.096Z,101373.59
2022-08-03T14:22:25.982Z,101381.34
2022-08-03T14:24:58.075Z,101373.19
2022-08-03T14:27:30.342Z,101376.88
2022-08-03T14:30:02.353Z,101375.84
2022-08-03T14:32:34.519Z,101375.41
2022-08-03T14:35:07.099Z,101379.44
2022-08-03T14:37:39.270Z,101380.44
2022-08-03T14:40:11.492Z,101388.69
2022-08-03T14:42:43.600Z,101381.09
2022-08-03T14:45:20.468Z,101369.22
2022-08-03T14:50:27.892Z,101369.88
2022-08-03T14:50:50.935Z,101370.91
2022-08-03T14:53:24.425Z,101379.50
2022-08-03T14:55:56.971Z,101367.38
2022-08-03T14:58:29.062Z,101359.09
2022-08-03T15:01:01.101Z,101363.31
2022-08-03T15:03:33.134Z,101358.19
2022-08-03T15:06:05.146Z,101358.88
2022-08-03T15:08:37.194Z,101345.94
2022-08-03T15:11:09.236Z,101355.78
2022-08-03T15:13:41.256Z,101352.78
2022-08-03T15:16:13.203Z,101354.81
2022-08-03T15:18:45.185Z,101347.78
2022-08-03T15:21:46.250Z,101358.22
2022-08-03T15:24:09.722Z,101354.78
2022-08-03T15:26:41.993Z,101348.25
2022-08-03T15:30:09.519Z,101351.16
2022-08-03T15:32:09.433Z,101358.47
2022-08-03T15:34:41.840Z,101354.06
2022-08-03T15:37:25.666Z,101348.19
2022-08-03T15:39:59.603Z,101342.41
2022-08-03T15:42:34.248Z,101346.34
2022-08-03T15:45:06.899Z,101349.66
2022-08-03T15:47:38.999Z,101350.13
2022-08-03T15:50:12.064Z,101354.59
2022-08-03T15:52:44.011Z,101346.75
2022-08-03T15:55:17.225Z,101345.63
2022-08-03T15:59:04.358Z,101340.06
2022-08-03T16:00:42.939Z,101334.50
2022-08-03T16:03:15.003Z,101342.06
2022-08-03T16:05:47.019Z,101330.47
2022-08-03T16:08:19.017Z,101340.47
2022-08-03T16:10:51.126Z,101336.03
2022-08-03T16:14:14.119Z,101348.44
2022-08-03T16:16:17.038Z,101342.03
2022-08-03T16:18:48.986Z,101335.31
2022-08-03T16:21:21.789Z,101334.91
2022-08-03T16:23:56.264Z,101342.03
2022-08-03T16:26:28.680Z,101334.91
2022-08-03T16:29:04.292Z,101334.19
2022-08-03T16:31:51.321Z,101334.47
2022-08-03T16:34:23.604Z,101335.06
2022-08-03T16:36:55.586Z,101329.06
2022-08-03T16:39:27.611Z,101318.22
2022-08-03T16:42:01.719Z,101327.47
2022-08-03T16:44:33.957Z,101329.13
2022-08-03T16:47:06.093Z,101327.41
2022-08-03T16:49:53.743Z,101329.81
2022-08-03T16:52:28.400Z,101331.09
2022-08-03T16:55:00.667Z,101326.97
2022-08-03T16:57:59.040Z,101325.97
2022-08-03T17:00:33.960Z,101329.53
2022-08-03T17:03:18.695Z,101333.69
2022-08-03T17:05:51.295Z,101332.84
2022-08-03T17:08:26.814Z,101336.53
2022-08-03T17:10:59.381Z,101330.53
2022-08-03T17:13:47.515Z,101332.38
2022-08-03T17:16:19.868Z,101331.22
2022-08-03T17:18:57.722Z,101333.94
2022-08-03T17:21:39.798Z,101326.66
2022-08-03T17:24:35.333Z,101329.16
2022-08-03T17:28:51.421Z,101335.53
2022-08-03T17:30:20.672Z,101329.53
2022-08-03T17:32:57.943Z,101323.47
2022-08-03T17:35:36.424Z,101332.00
2022-08-03T17:38:16.529Z,101336.25
2022-08-03T17:40:52.140Z,101328.13
2022-08-03T17:43:44.365Z,101334.53
2022-08-03T17:46:19.529Z,101335.03
2022-08-03T17:48:52.066Z,101330.63
2022-08-03T17:51:53.110Z,101335.88
2022-08-03T17:54:36.903Z,101342.56
2022-08-03T17:58:02.803Z,101340.78
2022-08-03T18:00:54.948Z,101345.03
2022-08-03T18:03:58.312Z,101342.97
2022-08-03T18:06:36.040Z,101352.47
2022-08-03T18:10:04.772Z,101342.44
2022-08-03T18:12:07.004Z,101350.94
2022-08-03T18:14:57.773Z,101344.06
2022-08-03T18:17:55.655Z,101347.25
2022-08-03T18:20:34.627Z,101351.59
2022-08-03T18:23:25.048Z,101353.22
2022-08-03T18:26:10.739Z,101353.63
2022-08-03T18:28:44.967Z,101348.88
2022-08-03T18:32:00.267Z,101355.75
2022-08-03T18:34:16.177Z,101359.31
2022-08-03T18:36:54.761Z,101361.16
2022-08-03T18:39:28.815Z,101362.03
2022-08-03T18:42:02.783Z,101354.94
2022-08-03T18:44:53.010Z,101364.41
2022-08-03T18:47:52.651Z,101365.22
2022-08-03T18:50:39.085Z,101372.78
2022-08-03T18:53:19.828Z,101376.69
2022-08-03T18:56:26.222Z,101384.34
2022-08-03T18:59:04.063Z,101391.63
2022-08-03T19:02:00.610Z,101392.78
2022-08-03T19:04:47.307Z,101405.06
2022-08-03T19:07:27.196Z,101409.88
2022-08-03T19:10:00.450Z,101411.00
2022-08-03T19:12:52.231Z,101417.66
2022-08-03T19:15:36.461Z,101421.72
2022-08-03T19:18:17.892Z,101423.66
2022-08-03T19:20:53.191Z,101431.47
2022-08-03T19:23:31.060Z,101439.22
2022-08-03T19:26:07.267Z,101446.81
2022-08-03T19:28:59.735Z,101444.34
2022-08-03T19:31:35.008Z,101446.09
2022-08-03T19:34:07.530Z,101436.44
2022-08-03T19:36:43.773Z,101445.34
2022-08-03T19:39:16.293Z,101445.44
2022-08-03T19:41:52.439Z,101446.59
2022-08-03T19:44:30.563Z,101442.78
2022-08-03T19:47:16.972Z,101443.72
2022-08-03T19:50:05.082Z,101446.72
2022-08-03T19:52:40.305Z,101445.94
2022-08-03T19:55:18.263Z,101448.22
2022-08-03T19:57:58.127Z,101459.50
2022-08-03T20:00:36.929Z,101463.69
2022-08-03T20:03:19.671Z,101470.78
2022-08-03T20:05:55.058Z,101467.78
2022-08-03T20:08:27.597Z,101474.34
2022-08-03T20:11:00.957Z,101463.09
2022-08-03T20:13:38.888Z,101463.19
2022-08-03T20:16:11.324Z,101462.00
2022-08-03T20:18:44.847Z,101467.34
2022-08-03T20:21:20.284Z,101471.16
2022-08-03T20:24:02.888Z,101474.78
2022-08-03T20:26:55.474Z,101480.50
2022-08-03T20:30:05.220Z,101480.25
2022-08-03T20:32:26.541Z,101478.03
2022-08-03T20:34:58.737Z,101480.53
2022-08-03T20:37:31.237Z,101483.59
2022-08-03T20:40:05.752Z,101487.75
2022-08-03T20:42:37.833Z,101491.56
2022-08-03T20:45:15.168Z,101489.41
2022-08-03T20:48:05.411Z,101489.47
2022-08-03T20:50:41.466Z,101496.00
2022-08-03T20:53:15.645Z,101487.13
2022-08-03T20:56:10.156Z,101488.25
2022-08-03T20:58:43.215Z,101490.06
2022-08-03T21:01:27.758Z,101482.44
2022-08-03T21:04:11.156Z,101480.91
2022-08-03T21:06:53.507Z,101488.13
2022-08-03T21:09:33.471Z,101486.84
2022-08-03T21:12:19.003Z,101487.94
2022-08-03T21:15:06.918Z,101496.13
2022-08-03T21:17:47.135Z,101485.75
2022-08-03T21:20:22.266Z,101486.69
2022-08-03T21:22:57.204Z,101487.03
2022-08-03T21:25:32.887Z,101490.63
2022-08-03T21:28:08.026Z,101484.34
2022-08-03T21:30:40.074Z,101483.72
2022-08-03T21:33:12.434Z,101481.84
2022-08-03T21:35:46.404Z,101481.94
2022-08-03T21:38:21.108Z,101478.31
2022-08-03T21:41:03.316Z,101467.69
2022-08-03T21:43:35.462Z,101481.94
2022-08-03T21:46:08.373Z,101493.09
2022-08-03T21:48:42.018Z,101487.91
2022-08-03T21:51:19.323Z,101482.81
2022-08-03T21:54:03.812Z,101490.28
2022-08-03T21:56:42.160Z,101492.31
2022-08-03T21:59:20.144Z,101484.47
2022-08-03T22:01:55.400Z,101486.56
2022-08-03T22:04:55.428Z,101486.09
2022-08-03T22:07:28.331Z,101485.53
2022-08-03T22:10:02.967Z,101483.72
2022-08-03T22:12:35.959Z,101483.72
2022-08-03T22:15:12.199Z,101475.88
2022-08-03T22:17:55.916Z,101476.75
2022-08-03T22:20:29.485Z,101475.94
2022-08-03T22:23:06.317Z,101480.28
2022-08-03T22:25:40.654Z,101468.66
2022-08-03T22:28:15.604Z,101476.75
2022-08-03T22:30:48.662Z,101476.94
2022-08-03T22:33:21.216Z,101475.94
2022-08-03T22:35:57.754Z,101475.13
2022-08-03T22:38:32.720Z,101469.88
2022-08-03T22:41:05.872Z,101475.22
2022-08-03T22:43:38.276Z,101477.88
2022-08-03T22:46:15.548Z,101471.69
2022-08-03T22:48:51.600Z,101468.38
2022-08-03T22:51:23.785Z,101465.78
2022-08-03T22:53:56.330Z,101483.84
2022-08-03T22:56:28.481Z,101476.84
2022-08-03T22:59:00.550Z,101468.13
2022-08-03T23:01:41.508Z,101468.34
2022-08-03T23:04:13.484Z,101466.84
2022-08-03T23:06:49.550Z,101465.22
2022-08-03T23:09:24.374Z,101463.63
2022-08-03T23:11:57.933Z,101463.56
2022-08-03T23:14:33.648Z,101466.53
2022-08-03T23:17:06.531Z,101468.41
2022-08-03T23:19:44.768Z,101461.47
2022-08-03T23:22:29.378Z,101465.22
2022-08-03T23:25:04.113Z,101469.81
2022-08-03T23:27:40.549Z,101466.44
2022-08-03T23:30:13.632Z,101465.66
2022-08-03T23:32:46.838Z,101457.50
2022-08-03T23:36:29.113Z,101458.59
2022-08-03T23:38:38.064Z,101451.53
2022-08-03T23:41:10.539Z,101455.00
2022-08-03T23:43:51.827Z,101453.25
2022-08-03T23:46:27.627Z,101449.91
2022-08-03T23:49:00.663Z,101449.91
2022-08-03T23:52:17.542Z,101449.84
2022-08-03T23:55:03.777Z,101453.25
2022-08-03T23:57:45.324Z,101443.44
